Fort Patrick Henry Observed Data For Previous 48 Hours

Caption
Day and Hour Reservoir Elevation (behind dam)* Tailwater Elevation (below dam)* Average Hourly Discharge*
4/22/2018 2 AM EDT 1,260.85 1,194.09 3,426
4/22/2018 3 AM EDT 1,260.89 1,194.12 3,428
4/22/2018 4 AM EDT 1,260.86 1,194.11 3,422
4/22/2018 5 AM EDT 1,260.87 1,194.13 3,423
4/22/2018 6 AM EDT 1,260.81 1,194.12 3,436
4/22/2018 7 AM EDT 1,260.80 1,194.08 3,418
4/22/2018 8 AM EDT 1,261.05 1,195.34 3,481
4/22/2018 9 AM EDT 1,261.09 1,196.96 6,366
4/22/2018 10 AM EDT 1,261.17 1,196.99 6,397
4/22/2018 11 AM EDT 1,261.26 1,196.99 6,402
4/22/2018 12 PM EDT 1,261.20 1,197.02 6,416
4/22/2018 1 PM EDT 1,261.23 1,196.97 6,392
4/22/2018 2 PM EDT 1,261.26 1,197.01 6,424
4/22/2018 3 PM EDT 1,261.25 1,197.04 6,435
4/22/2018 4 PM EDT 1,261.28 1,197.01 6,434
4/22/2018 5 PM EDT 1,261.30 1,197.03 6,412
4/22/2018 6 PM EDT 1,261.32 1,197.02 6,436
4/22/2018 7 PM EDT 1,261.33 1,197.00 6,431
4/22/2018 8 PM EDT 1,261.40 1,197.03 6,413
4/22/2018 9 PM EDT 1,261.52 1,197.08 6,448
4/22/2018 10 PM EDT 1,261.26 1,196.98 6,398
4/22/2018 11 PM EDT 1,260.99 1,196.99 6,394
4/23/2018 12 AM EDT 1,260.67 1,197.01 6,381
4/23/2018 1 AM EDT 1,260.67 1,194.12 3,464
4/23/2018 2 AM EDT 1,260.65 1,194.09 3,399
4/23/2018 3 AM EDT 1,260.64 1,194.11 3,407
4/23/2018 4 AM EDT 1,260.62 1,194.11 3,403
4/23/2018 5 AM EDT 1,260.62 1,194.11 3,408
4/23/2018 6 AM EDT 1,260.62 1,194.09 3,418
4/23/2018 7 AM EDT 1,260.55 1,195.32 3,470
4/23/2018 8 AM EDT 1,260.40 1,196.96 6,359
4/23/2018 9 AM EDT 1,260.45 1,197.03 6,400
4/23/2018 10 AM EDT 1,260.51 1,197.05 6,451
4/23/2018 11 AM EDT 1,260.57 1,197.03 6,445
4/23/2018 12 PM EDT 1,260.55 1,197.02 6,440
4/23/2018 1 PM EDT 1,260.54 1,197.02 6,398
4/23/2018 2 PM EDT 1,260.64 1,197.09 6,459
4/23/2018 3 PM EDT 1,260.59 1,197.08 6,475
4/23/2018 4 PM EDT 1,260.59 1,197.03 6,427
4/23/2018 5 PM EDT 1,260.61 1,197.01 6,375
4/23/2018 6 PM EDT 1,260.58 1,197.01 6,401
4/23/2018 7 PM EDT 1,260.65 1,197.02 6,378
4/23/2018 8 PM EDT 1,260.65 1,197.03 6,384
4/23/2018 9 PM EDT 1,260.76 1,197.07 6,392
4/23/2018 10 PM EDT 1,260.73 1,197.03 6,419
4/23/2018 11 PM EDT 1,260.72 1,197.06 6,437
4/24/2018 12 AM EDT 1,260.72 1,197.07 6,450
4/24/2018 1 AM EDT 1,260.75 1,197.04 6,451
4/24/2018 2 AM EDT 1,260.83 1,197.01 6,389
4/24/2018 3 AM EDT 1,260.79 1,196.99 6,362
4/24/2018 4 AM EDT 1,260.82 1,197.01 6,372
4/24/2018 5 AM EDT 1,260.84 1,197.01 6,386
4/24/2018 6 AM EDT 1,260.88 1,196.98 6,376
4/24/2018 7 AM EDT 1,260.84 1,198.09 6,690
4/24/2018 8 AM EDT 1,260.78 1,198.33 8,313
4/24/2018 9 AM EDT 1,260.58 1,198.30 8,334
4/24/2018 10 AM EDT 1,260.41 1,198.32 8,311
4/24/2018 11 AM EDT 1,260.27 1,198.31 8,294
4/24/2018 12 PM EDT 1,260.09 1,198.28 8,269
4/24/2018 1 PM EDT 1,259.94 1,198.31 8,255
4/24/2018 2 PM EDT 1,259.97 1,197.01 6,372
4/24/2018 3 PM EDT 1,260.02 1,196.98 6,343
4/24/2018 4 PM EDT 1,260.06 1,197.02 6,357
4/24/2018 5 PM EDT 1,259.78 1,196.98 6,349
4/24/2018 6 PM EDT 1,259.51 1,198.00 6,634
4/24/2018 7 PM EDT 1,259.21 1,197.09 6,466
4/24/2018 8 PM EDT 1,259.20 1,194.14 3,435
4/24/2018 9 PM EDT 1,259.52 1,194.15 3,401
4/24/2018 10 PM EDT 1,259.85 1,194.00 3,304

Elevations are in feet above sea level. Discharges are in cubic feet per second and are reported at the end of the hour.